PWSweather.com
Personal Weather Stations
Station Observations
ZBYSOV
ZbysovCZ 66411

ZbysovCZ 66411

Lat: 49.1578064, Lon: 16.3474598

Elevation: 350

Station Type: Davis Vantage Pro 2

http://www.pocasizbysov.info/

High Low Average
Temperature 35.1°F1.7°F 27.7°F-2.4°F 31.8°F-0.1°F
Dew Point 31.1°F-0.5°F 23.2°F-4.9°F 28.6°F-1.9°F
Winds 11.3 mph E18.2 mph E 1.6 mph 2.6 mph 5.3 mph 8.5 mph
Wind Gusts 15.0 mph24.1 mph 2.0 mph3.2 mph 7.7 mph12.4 mph
Humidity 97% 78% 88%
Pressure 30.10 in1019.30 in 29.59 in1002.00 in -
Precipitation 0.00 in0.00 in - -
Hour Temp Dew Point Humidity Winds Wind Gusts Pressure Precip Precip Rate Daily Precip Total
12:30 AM 30.4°F-0.9°C 29.6°F-1.3°C 97% 11.3 mph E18.2 kmh E 14.0 mph22.5 kmh 29.62 in1003.0 mb 0.00 in0.0 mm 0.00 in0.0 mm 0.00 in0.0 mm
01:00 AM 30.4°F-0.9°C 29.6°F-1.3°C 97% 5.2 mph SE8.4 kmh SE 8.0 mph12.9 kmh 29.61 in1002.7 mb 0.00 in0.0 mm 0.00 in0.0 mm 0.00 in0.0 mm
01:30 AM 30.6°F-0.8°C 29.6°F-1.3°C 96% 5.0 mph ENE8.0 kmh ENE 9.0 mph14.5 kmh 29.60 in1002.4 mb 0.00 in0.0 mm 0.00 in0.0 mm 0.00 in0.0 mm
02:00 AM 30.7°F-0.7°C 29.5°F-1.4°C 95% 7.8 mph NE12.6 kmh NE 11.0 mph17.7 kmh 29.60 in1002.4 mb 0.00 in0.0 mm 0.00 in0.0 mm 0.00 in0.0 mm
02:30 AM 30.7°F-0.7°C 29.2°F-1.6°C 94% 4.0 mph NE6.4 kmh NE 9.0 mph14.5 kmh 29.60 in1002.4 mb 0.00 in0.0 mm 0.00 in0.0 mm 0.00 in0.0 mm
03:00 AM 30.9°F-0.6°C 29.1°F-1.6°C 93% 2.5 mph NE4.0 kmh NE 5.0 mph8.0 kmh 29.60 in1002.4 mb 0.00 in0.0 mm 0.00 in0.0 mm 0.00 in0.0 mm
03:30 AM 31.1°F-0.5°C 29.3°F-1.5°C 93% 3.8 mph E6.1 kmh E 5.0 mph8.0 kmh 29.59 in1002.0 mb 0.00 in0.0 mm 0.00 in0.0 mm 0.00 in0.0 mm
04:00 AM 31.3°F-0.4°C 29.5°F-1.4°C 93% 3.4 mph ENE5.5 kmh ENE 5.0 mph8.0 kmh 29.60 in1002.4 mb 0.00 in0.0 mm 0.00 in0.0 mm 0.00 in0.0 mm
04:30 AM 31.3°F-0.4°C 29.5°F-1.4°C 93% 2.9 mph E4.7 kmh E 4.0 mph6.4 kmh 29.61 in1002.7 mb 0.00 in0.0 mm 0.00 in0.0 mm 0.00 in0.0 mm
05:00 AM 31.5°F-0.3°C 29.7°F-1.3°C 93% 4.8 mph ENE7.7 kmh ENE 6.0 mph9.7 kmh 29.61 in1002.7 mb 0.00 in0.0 mm 0.00 in0.0 mm 0.00 in0.0 mm
05:30 AM 31.5°F-0.3°C 29.7°F-1.3°C 93% 3.5 mph ENE5.6 kmh ENE 6.0 mph9.7 kmh 29.62 in1003.0 mb 0.00 in0.0 mm 0.00 in0.0 mm 0.00 in0.0 mm
06:00 AM 30.2°F-1.0°C 29.5°F-1.4°C 97% 4.5 mph E7.2 kmh E 8.0 mph12.9 kmh 29.63 in1003.4 mb 0.00 in0.0 mm 0.00 in0.0 mm 0.01 in0.3 mm
06:30 AM 31.5°F-0.3°C 29.7°F-1.3°C 93% 1.7 mph NNE2.7 kmh NNE 2.0 mph3.2 kmh 29.64 in1003.7 mb 0.00 in0.0 mm 0.00 in0.0 mm 0.00 in0.0 mm
07:00 AM 31.3°F-0.4°C 29.5°F-1.4°C 93% 3.7 mph N6.0 kmh N 5.0 mph8.0 kmh 29.65 in1004.1 mb 0.00 in0.0 mm 0.00 in0.0 mm 0.00 in0.0 mm
07:30 AM 31.5°F-0.3°C 29.7°F-1.3°C 93% 2.7 mph NNE4.3 kmh NNE 4.0 mph6.4 kmh 29.67 in1004.7 mb 0.00 in0.0 mm 0.00 in0.0 mm 0.00 in0.0 mm
08:00 AM 31.5°F-0.3°C 29.7°F-1.3°C 93% 1.6 mph N2.6 kmh N 3.0 mph4.8 kmh 29.69 in1005.4 mb 0.00 in0.0 mm 0.00 in0.0 mm 0.00 in0.0 mm
08:30 AM 31.3°F-0.4°C 29.8°F-1.2°C 94% 3.5 mph NNE5.6 kmh NNE 5.0 mph8.0 kmh 29.70 in1005.8 mb 0.00 in0.0 mm 0.00 in0.0 mm 0.01 in0.3 mm
09:00 AM 31.5°F-0.3°C 29.9°F-1.2°C 94% 2.6 mph NNE4.2 kmh NNE 4.0 mph6.4 kmh 29.71 in1006.1 mb 0.00 in0.0 mm 0.00 in0.0 mm 0.02 in0.5 mm
09:30 AM 31.8°F-0.1°C 30.3°F-0.9°C 94% 4.3 mph N6.9 kmh N 7.0 mph11.3 kmh 29.73 in1006.8 mb 0.00 in0.0 mm 0.00 in0.0 mm 0.02 in0.5 mm
10:00 AM 32.4°F0.2°C 30.6°F-0.8°C 93% 5.8 mph N9.3 kmh N 8.0 mph12.9 kmh 29.74 in1007.1 mb 0.00 in0.0 mm 0.00 in0.0 mm 0.02 in0.5 mm
10:30 AM 32.9°F0.5°C 30.8°F-0.7°C 92% 2.6 mph NNW4.2 kmh NNW 4.0 mph6.4 kmh 29.76 in1007.8 mb 0.00 in0.0 mm 0.00 in0.0 mm 0.02 in0.5 mm
11:00 AM 33.4°F0.8°C 31.1°F-0.5°C 91% 2.9 mph N4.7 kmh N 5.0 mph8.0 kmh 29.77 in1008.1 mb 0.00 in0.0 mm 0.00 in0.0 mm 0.02 in0.5 mm
11:30 AM 34.0°F1.1°C 31.1°F-0.5°C 89% 4.3 mph N6.9 kmh N 6.0 mph9.7 kmh 29.78 in1008.5 mb 0.00 in0.0 mm 0.00 in0.0 mm 0.02 in0.5 mm
12:00 PM 34.2°F1.2°C 30.4°F-0.9°C 86% 9.9 mph NNW15.9 kmh NNW 13.0 mph20.9 kmh 29.79 in1008.8 mb 0.00 in0.0 mm 0.00 in0.0 mm 0.02 in0.5 mm
12:30 PM 34.3°F1.3°C 30.6°F-0.8°C 86% 6.9 mph NNE11.1 kmh NNE 10.0 mph16.1 kmh 29.81 in1009.5 mb 0.00 in0.0 mm 0.00 in0.0 mm 0.02 in0.5 mm
01:00 PM 35.1°F1.7°C 29.8°F-1.2°C 81% 9.2 mph N14.8 kmh N 13.0 mph20.9 kmh 29.82 in1009.8 mb 0.00 in0.0 mm 0.00 in0.0 mm 0.02 in0.5 mm
01:30 PM 34.5°F1.4°C 29.3°F-1.5°C 81% 4.4 mph NNW7.1 kmh NNW 7.0 mph11.3 kmh 29.83 in1010.2 mb 0.00 in0.0 mm 0.00 in0.0 mm 0.02 in0.5 mm
02:00 PM 34.3°F1.3°C 29.4°F-1.4°C 82% 7.5 mph NNW12.1 kmh NNW 12.0 mph19.3 kmh 29.84 in1010.5 mb 0.00 in0.0 mm 0.00 in0.0 mm 0.02 in0.5 mm
02:30 PM 34.9°F1.6°C 29.4°F-1.4°C 80% 5.7 mph N9.2 kmh N 9.0 mph14.5 kmh 29.86 in1011.2 mb 0.00 in0.0 mm 0.00 in0.0 mm 0.02 in0.5 mm
03:00 PM 34.7°F1.5°C 28.6°F-1.9°C 78% 9.9 mph NNW15.9 kmh NNW 12.0 mph19.3 kmh 29.89 in1012.2 mb 0.00 in0.0 mm 0.00 in0.0 mm 0.02 in0.5 mm
03:30 PM 34.2°F1.2°C 28.3°F-2.1°C 79% 5.8 mph WNW9.3 kmh WNW 9.0 mph14.5 kmh 29.91 in1012.9 mb 0.00 in0.0 mm 0.00 in0.0 mm 0.02 in0.5 mm
04:00 PM 33.4°F0.8°C 27.6°F-2.4°C 79% 9.7 mph NNW15.6 kmh NNW 15.0 mph24.1 kmh 29.93 in1013.5 mb 0.00 in0.0 mm 0.00 in0.0 mm 0.02 in0.5 mm
04:30 PM 32.7°F0.4°C 27.3°F-2.6°C 80% 9.9 mph NNW15.9 kmh NNW 14.0 mph22.5 kmh 29.94 in1013.9 mb 0.00 in0.0 mm 0.00 in0.0 mm 0.02 in0.5 mm
05:00 PM 31.8°F-0.1°C 26.7°F-2.9°C 81% 8.3 mph NNW13.4 kmh NNW 10.0 mph16.1 kmh 29.96 in1014.6 mb 0.00 in0.0 mm 0.00 in0.0 mm 0.02 in0.5 mm
05:30 PM 31.5°F-0.3°C 26.9°F-2.8°C 83% 8.6 mph N13.8 kmh N 11.0 mph17.7 kmh 29.98 in1015.2 mb 0.00 in0.0 mm 0.00 in0.0 mm 0.02 in0.5 mm
06:00 PM 31.3°F-0.4°C 27.0°F-2.8°C 84% 6.3 mph NNW10.1 kmh NNW 10.0 mph16.1 kmh 29.99 in1015.6 mb 0.00 in0.0 mm 0.00 in0.0 mm 0.02 in0.5 mm
06:30 PM 30.9°F-0.6°C 26.4°F-3.1°C 83% 4.8 mph NW7.7 kmh NW 8.0 mph12.9 kmh 30.01 in1016.3 mb 0.00 in0.0 mm 0.00 in0.0 mm 0.02 in0.5 mm
07:00 PM 30.7°F-0.7°C 26.5°F-3.1°C 84% 2.8 mph NW4.5 kmh NW 4.0 mph6.4 kmh 30.03 in1016.9 mb 0.00 in0.0 mm 0.00 in0.0 mm 0.02 in0.5 mm
07:30 PM 31.5°F-0.3°C 26.9°F-2.8°C 83% 3.5 mph NNW5.6 kmh NNW 6.0 mph9.7 kmh 30.04 in1017.3 mb 0.00 in0.0 mm 0.00 in0.0 mm 0.02 in0.5 mm
08:00 PM 31.6°F-0.2°C 27.1°F-2.7°C 83% 7.7 mph NW12.4 kmh NW 10.0 mph16.1 kmh 30.05 in1017.6 mb 0.00 in0.0 mm 0.00 in0.0 mm 0.02 in0.5 mm
08:30 PM 31.3°F-0.4°C 26.7°F-2.9°C 83% 5.2 mph NW8.4 kmh NW 7.0 mph11.3 kmh 30.05 in1017.6 mb 0.00 in0.0 mm 0.00 in0.0 mm 0.02 in0.5 mm
09:33 PM 30.7°F-0.7°C 26.2°F-3.2°C 83% 4.7 mph NW7.6 kmh NW 6.0 mph9.7 kmh 30.08 in1018.6 mb 0.00 in0.0 mm 0.00 in0.0 mm 0.02 in0.5 mm
10:00 PM 30.4°F-0.9°C 25.9°F-3.4°C 83% 2.6 mph NW4.2 kmh NW 4.0 mph6.4 kmh 30.09 in1019.0 mb 0.00 in0.0 mm 0.00 in0.0 mm 0.02 in0.5 mm
10:30 PM 29.3°F-1.5°C 24.8°F-4.0°C 83% 3.0 mph NW4.8 kmh NW 4.0 mph6.4 kmh 30.10 in1019.3 mb 0.00 in0.0 mm 0.00 in0.0 mm 0.02 in0.5 mm
11:00 PM 28.0°F-2.2°C 23.8°F-4.6°C 84% 5.0 mph NW8.0 kmh NW 8.0 mph12.9 kmh 30.09 in1019.0 mb 0.00 in0.0 mm 0.00 in0.0 mm 0.02 in0.5 mm
11:30 PM 27.7°F-2.4°C 23.2°F-4.9°C 83% 7.5 mph NW12.1 kmh NW 10.0 mph16.1 kmh 30.09 in1019.0 mb 0.00 in0.0 mm 0.00 in0.0 mm 0.02 in0.5 mm